createdAt,value
2023-01-09T00:01:48.229Z,8.30
2023-01-09T00:04:16.784Z,8.30
2023-01-09T00:06:50.331Z,8.20
2023-01-09T00:09:18.723Z,8.20
2023-01-09T00:11:47.071Z,8.20
2023-01-09T00:14:15.837Z,8.20
2023-01-09T00:16:45.701Z,8.20
2023-01-09T00:19:14.233Z,8.20
2023-01-09T00:21:42.709Z,8.10
2023-01-09T00:24:11.500Z,8.10
2023-01-09T00:26:39.877Z,8.10
2023-01-09T00:29:08.502Z,8.00
2023-01-09T00:31:36.863Z,8.00
2023-01-09T00:34:10.562Z,8.00
2023-01-09T00:36:38.972Z,8.00
2023-01-09T00:39:07.566Z,8.00
2023-01-09T00:41:40.631Z,8.00
2023-01-09T00:44:13.610Z,7.90
2023-01-09T00:46:46.647Z,8.00
2023-01-09T00:49:17.855Z,8.00
2023-01-09T00:51:46.371Z,8.00
2023-01-09T00:54:17.230Z,8.00
2023-01-09T00:56:45.904Z,8.00
2023-01-09T00:59:14.378Z,8.00
2023-01-09T01:01:42.908Z,8.00
2023-01-09T01:04:28.773Z,8.00
2023-01-09T01:07:16.413Z,7.90
2023-01-09T01:09:44.844Z,7.90
2023-01-09T01:12:13.216Z,7.80
2023-01-09T01:14:41.619Z,7.80
2023-01-09T01:17:10.041Z,7.80
2023-01-09T01:19:38.613Z,7.80
2023-01-09T01:22:08.559Z,7.80
2023-01-09T01:24:36.983Z,7.80
2023-01-09T01:27:05.479Z,7.80
2023-01-09T01:29:33.945Z,7.80
2023-01-09T01:32:02.325Z,7.80
2023-01-09T01:34:31.296Z,7.90
2023-01-09T01:36:59.756Z,7.90
2023-01-09T01:39:29.536Z,7.90
2023-01-09T01:41:57.983Z,7.90
2023-01-09T01:44:59.670Z,7.90
2023-01-09T01:47:35.798Z,7.90
2023-01-09T01:50:06.843Z,7.80
2023-01-09T01:52:38.853Z,7.80
2023-01-09T01:55:10.492Z,7.80
2023-01-09T01:57:41.805Z,7.80
2023-01-09T02:00:12.181Z,7.80
2023-01-09T02:02:40.627Z,7.70
2023-01-09T02:05:09.684Z,7.70
2023-01-09T02:07:38.122Z,7.70
2023-01-09T02:10:08.959Z,7.70
2023-01-09T02:12:37.334Z,7.70
2023-01-09T02:15:09.596Z,7.70
2023-01-09T02:18:15.021Z,7.70
2023-01-09T02:20:53.667Z,7.70
2023-01-09T02:23:55.341Z,7.70
2023-01-09T02:26:42.123Z,7.70
2023-01-09T02:29:40.548Z,7.60
2023-01-09T02:32:18.373Z,7.60
2023-01-09T02:34:54.435Z,7.60
2023-01-09T02:37:33.888Z,7.60
2023-01-09T02:40:10.579Z,7.60
2023-01-09T02:42:41.517Z,7.60
2023-01-09T02:45:10.192Z,7.60
2023-01-09T02:47:43.106Z,7.50
2023-01-09T02:50:16.660Z,7.60
2023-01-09T02:53:19.118Z,7.60
2023-01-09T02:56:03.320Z,7.50
2023-01-09T02:58:50.462Z,7.50
2023-01-09T03:01:28.080Z,7.50
2023-01-09T03:04:06.024Z,7.50
2023-01-09T03:06:44.839Z,7.60
2023-01-09T03:09:16.587Z,7.60
2023-01-09T03:11:49.902Z,7.50
2023-01-09T03:14:22.079Z,7.50
2023-01-09T03:16:54.828Z,7.50
2023-01-09T03:19:28.315Z,7.50
2023-01-09T03:21:57.434Z,7.50
2023-01-09T03:24:25.871Z,7.50
2023-01-09T03:26:55.610Z,7.50
2023-01-09T03:29:24.194Z,7.50
2023-01-09T03:31:52.668Z,7.50
2023-01-09T03:34:21.083Z,7.50
2023-01-09T03:36:50.860Z,7.60
2023-01-09T03:39:19.399Z,7.60
2023-01-09T03:41:47.787Z,7.70
2023-01-09T03:44:16.155Z,7.70
2023-01-09T03:46:44.552Z,7.80
2023-01-09T03:49:13.989Z,7.90
2023-01-09T03:51:42.375Z,7.90
2023-01-09T03:54:12.212Z,8.00
2023-01-09T03:56:40.600Z,8.10
2023-01-09T03:59:09.027Z,8.10
2023-01-09T04:01:37.575Z,8.10
2023-01-09T04:04:06.367Z,8.20
2023-01-09T04:06:34.761Z,8.20
2023-01-09T04:09:03.200Z,8.20
2023-01-09T04:11:33.035Z,8.30
2023-01-09T04:14:01.486Z,8.30
2023-01-09T04:16:29.923Z,8.40
2023-01-09T04:18:58.370Z,8.40
2023-01-09T04:21:26.778Z,8.40
2023-01-09T04:23:55.156Z,8.40
2023-01-09T04:26:23.586Z,8.40
2023-01-09T04:28:53.419Z,8.50
2023-01-09T04:31:22.043Z,8.50
2023-01-09T04:33:50.436Z,8.50
2023-01-09T04:36:18.820Z,8.40
2023-01-09T04:38:47.172Z,8.40
2023-01-09T04:41:36.293Z,8.40
2023-01-09T04:44:07.009Z,8.50
2023-01-09T04:46:35.423Z,8.40
2023-01-09T04:49:03.805Z,8.50
2023-01-09T04:51:32.196Z,8.50
2023-01-09T04:54:00.592Z,8.50
2023-01-09T04:56:29.082Z,8.50
2023-01-09T04:58:57.458Z,8.50
2023-01-09T05:01:27.384Z,8.60
2023-01-09T05:03:55.858Z,8.60
2023-01-09T05:06:24.309Z,8.60
2023-01-09T05:08:52.863Z,8.60
2023-01-09T05:11:21.409Z,8.60
2023-01-09T05:13:49.793Z,8.60
2023-01-09T05:16:18.198Z,8.70
2023-01-09T05:18:48.131Z,8.70
2023-01-09T05:21:16.651Z,8.60
2023-01-09T05:23:45.057Z,8.60
2023-01-09T05:26:13.636Z,8.60
2023-01-09T05:28:42.033Z,8.60
2023-01-09T05:31:10.425Z,8.60
2023-01-09T05:33:38.848Z,8.60
2023-01-09T05:36:09.863Z,8.60
2023-01-09T05:38:38.467Z,8.60
2023-01-09T05:41:07.281Z,8.70
2023-01-09T05:43:35.828Z,8.70
2023-01-09T05:46:05.080Z,8.70
2023-01-09T05:48:33.461Z,8.80
2023-01-09T05:51:01.856Z,8.80
2023-01-09T05:53:31.706Z,8.80
2023-01-09T05:56:00.113Z,8.70
2023-01-09T05:58:28.567Z,8.70
2023-01-09T06:00:57.262Z,8.70
2023-01-09T06:03:25.891Z,8.70
2023-01-09T06:05:54.366Z,8.60
2023-01-09T06:08:22.815Z,8.70
2023-01-09T06:10:53.072Z,8.70
2023-01-09T06:13:21.549Z,8.70
2023-01-09T06:15:50.517Z,8.70
2023-01-09T06:18:18.966Z,8.60
2023-01-09T06:20:47.428Z,8.60
2023-01-09T06:23:15.841Z,8.70
2023-01-09T06:25:44.383Z,8.70
2023-01-09T06:28:14.223Z,8.70
2023-01-09T06:30:42.672Z,8.70
2023-01-09T06:33:11.180Z,8.70
2023-01-09T06:35:39.545Z,8.80
2023-01-09T06:38:07.924Z,8.80
2023-01-09T06:40:36.332Z,8.80
2023-01-09T06:43:04.773Z,8.80
2023-01-09T06:45:34.677Z,8.80
2023-01-09T06:48:03.069Z,8.80
2023-01-09T06:50:31.895Z,8.80
2023-01-09T06:53:00.575Z,8.80
2023-01-09T06:55:29.001Z,8.80
2023-01-09T06:57:57.577Z,8.80
2023-01-09T07:00:27.329Z,8.90
2023-01-09T07:02:57.165Z,8.90
2023-01-09T07:05:25.959Z,8.90
2023-01-09T07:07:54.804Z,8.90
2023-01-09T07:10:23.560Z,8.90
2023-01-09T07:12:51.980Z,8.90
2023-01-09T07:15:20.433Z,8.90
2023-01-09T07:17:49.984Z,8.90
2023-01-09T07:20:20.291Z,8.90
2023-01-09T07:22:48.929Z,8.90
2023-01-09T07:25:17.436Z,9.00
2023-01-09T07:27:45.843Z,9.00
2023-01-09T07:30:15.543Z,9.00
2023-01-09T07:32:43.940Z,9.00
2023-01-09T07:35:12.702Z,9.00
2023-01-09T07:37:42.508Z,9.00
2023-01-09T07:40:12.105Z,9.00
2023-01-09T07:42:40.575Z,9.00
2023-01-09T07:45:09.763Z,9.00
2023-01-09T07:47:38.163Z,9.00
2023-01-09T07:50:07.301Z,9.00
2023-01-09T07:52:35.660Z,9.00
2023-01-09T07:55:06.013Z,9.00
2023-01-09T07:57:34.469Z,9.00
2023-01-09T08:00:03.696Z,9.00
2023-01-09T08:02:32.203Z,9.00
2023-01-09T08:05:00.660Z,9.00
2023-01-09T08:07:29.858Z,9.00
2023-01-09T08:09:59.489Z,9.00
2023-01-09T08:12:29.399Z,9.00
2023-01-09T08:14:57.764Z,9.00
2023-01-09T08:17:26.673Z,9.10
2023-01-09T08:19:55.101Z,9.10
2023-01-09T08:22:23.563Z,9.00
2023-01-09T08:24:51.962Z,9.10
2023-01-09T08:27:20.417Z,9.10
2023-01-09T08:29:50.198Z,9.20
2023-01-09T08:32:18.621Z,9.20
2023-01-09T08:34:47.027Z,9.20
2023-01-09T08:37:15.444Z,9.20
2023-01-09T08:39:43.890Z,9.20
2023-01-09T08:42:29.874Z,9.20
2023-01-09T08:45:25.429Z,9.20
2023-01-09T08:47:53.997Z,9.20
2023-01-09T08:50:22.398Z,9.20
2023-01-09T08:52:50.826Z,9.30
2023-01-09T08:55:19.367Z,9.40
2023-01-09T08:57:51.321Z,9.40
2023-01-09T09:00:23.649Z,9.40
2023-01-09T09:02:53.936Z,9.40
2023-01-09T09:05:23.353Z,9.50
2023-01-09T09:07:51.892Z,9.50
2023-01-09T09:10:20.589Z,9.40
2023-01-09T09:12:51.339Z,9.40
2023-01-09T09:15:24.310Z,9.40
2023-01-09T09:17:54.676Z,9.40
2023-01-09T09:20:23.858Z,9.40
2023-01-09T09:22:52.396Z,9.40
2023-01-09T09:25:21.585Z,9.40
2023-01-09T09:27:50.172Z,9.50
2023-01-09T09:30:21.157Z,9.50
2023-01-09T09:32:49.930Z,9.50
2023-01-09T09:35:21.068Z,9.60
2023-01-09T09:37:55.883Z,9.60
2023-01-09T09:40:35.825Z,9.60
2023-01-09T09:43:47.354Z,9.60
2023-01-09T09:46:29.209Z,9.60
2023-01-09T09:49:00.730Z,9.50
2023-01-09T09:51:45.432Z,9.50
2023-01-09T09:54:19.178Z,9.60
2023-01-09T09:56:51.720Z,9.60
2023-01-09T09:59:22.671Z,9.60
2023-01-09T10:01:58.953Z,9.70
2023-01-09T10:04:29.315Z,9.70
2023-01-09T10:07:01.086Z,9.80
2023-01-09T10:09:41.048Z,9.90
2023-01-09T10:12:22.256Z,9.90
2023-01-09T10:14:50.987Z,10.00
2023-01-09T10:17:38.591Z,10.00
2023-01-09T10:20:37.336Z,10.10
2023-01-09T10:23:21.729Z,10.20
2023-01-09T10:25:55.870Z,10.10
2023-01-09T10:28:39.926Z,10.20
2023-01-09T10:31:17.215Z,10.30
2023-01-09T10:33:58.169Z,10.40
2023-01-09T10:36:54.032Z,10.50
2023-01-09T10:39:26.121Z,10.50
2023-01-09T10:41:59.718Z,10.50
2023-01-09T10:44:35.819Z,10.60
2023-01-09T10:47:06.967Z,10.60
2023-01-09T10:49:39.295Z,10.60
2023-01-09T10:52:18.132Z,10.60
2023-01-09T10:54:53.930Z,10.60
2023-01-09T10:57:37.160Z,10.60
2023-01-09T11:00:07.352Z,10.70
2023-01-09T11:02:37.436Z,10.70
2023-01-09T11:05:07.791Z,10.70
2023-01-09T11:07:39.244Z,10.80
2023-01-09T11:10:11.988Z,10.80
2023-01-09T11:12:41.471Z,10.90
2023-01-09T11:15:30.176Z,10.90
2023-01-09T11:18:18.227Z,10.90
2023-01-09T11:20:48.187Z,11.00
2023-01-09T11:23:30.975Z,11.00
2023-01-09T11:26:01.023Z,11.00
2023-01-09T11:28:29.868Z,11.00
2023-01-09T11:31:01.282Z,11.00
2023-01-09T11:33:32.050Z,11.00
2023-01-09T11:36:08.712Z,11.00
2023-01-09T11:38:49.566Z,11.00
2023-01-09T11:41:20.810Z,10.90
2023-01-09T11:43:51.967Z,10.90
2023-01-09T11:46:35.445Z,10.90
2023-01-09T11:49:06.138Z,10.90
2023-01-09T11:51:37.091Z,10.90
2023-01-09T11:54:17.729Z,10.90
2023-01-09T11:56:49.821Z,11.00
2023-01-09T11:59:20.300Z,11.00
2023-01-09T12:02:08.365Z,11.00
2023-01-09T12:04:42.244Z,11.00
2023-01-09T12:07:38.506Z,11.00
2023-01-09T12:10:21.224Z,11.00
2023-01-09T12:12:58.860Z,11.00
2023-01-09T12:15:34.726Z,11.00
2023-01-09T12:18:23.843Z,11.00
2023-01-09T12:21:03.523Z,11.00
2023-01-09T12:23:52.325Z,11.10
2023-01-09T12:26:25.183Z,11.10
2023-01-09T12:29:07.096Z,11.20
2023-01-09T12:31:58.697Z,11.20
2023-01-09T12:34:50.753Z,11.20
2023-01-09T12:37:41.096Z,11.20
2023-01-09T12:40:23.367Z,11.20
2023-01-09T12:42:59.750Z,11.10
2023-01-09T12:45:38.919Z,11.00
2023-01-09T12:48:21.449Z,10.90
2023-01-09T12:51:00.816Z,10.80
2023-01-09T12:53:32.464Z,10.80
2023-01-09T12:56:09.059Z,10.70
2023-01-09T12:58:44.900Z,10.70
2023-01-09T13:01:18.568Z,10.70
2023-01-09T13:03:53.593Z,10.70
2023-01-09T13:06:25.783Z,10.70
2023-01-09T13:09:03.432Z,10.60
2023-01-09T13:11:42.144Z,10.60
2023-01-09T13:14:17.933Z,10.60
2023-01-09T13:16:49.860Z,10.60
2023-01-09T13:19:24.104Z,10.60
2023-01-09T13:21:53.325Z,10.70
2023-01-09T13:24:26.353Z,10.70
2023-01-09T13:27:00.512Z,10.70
2023-01-09T13:29:32.294Z,10.70
2023-01-09T13:32:27.177Z,10.70
2023-01-09T13:34:57.724Z,10.60
2023-01-09T13:37:30.009Z,10.60
2023-01-09T13:40:01.415Z,10.60
2023-01-09T13:42:38.537Z,10.50
2023-01-09T13:45:25.456Z,10.50
2023-01-09T13:48:40.046Z,10.50
2023-01-09T13:51:54.147Z,10.60
2023-01-09T13:55:00.383Z,10.50
2023-01-09T13:57:35.226Z,10.50
2023-01-09T14:00:44.387Z,10.50
2023-01-09T14:03:21.558Z,10.50
2023-01-09T14:06:19.243Z,10.50
2023-01-09T14:08:51.088Z,10.60
2023-01-09T14:11:27.648Z,10.60
2023-01-09T14:14:19.276Z,10.60
2023-01-09T14:16:48.121Z,10.60
2023-01-09T14:19:31.100Z,10.60
2023-01-09T14:22:00.240Z,10.60
2023-01-09T14:24:31.734Z,10.60
2023-01-09T14:27:01.228Z,10.70
2023-01-09T14:29:47.526Z,10.70
2023-01-09T14:32:47.425Z,10.70
2023-01-09T14:35:21.149Z,10.70
2023-01-09T14:38:06.914Z,10.60
2023-01-09T14:40:37.376Z,10.60
2023-01-09T14:43:16.011Z,10.60
2023-01-09T14:45:50.086Z,10.60
2023-01-09T14:48:19.489Z,10.60
2023-01-09T14:50:55.275Z,10.70
2023-01-09T14:53:26.679Z,10.70
2023-01-09T14:55:57.964Z,10.70
2023-01-09T14:58:28.039Z,10.80
2023-01-09T15:01:02.561Z,10.80
2023-01-09T15:03:35.735Z,10.80
2023-01-09T15:06:04.657Z,10.80
2023-01-09T15:08:33.916Z,10.70
2023-01-09T15:11:02.390Z,10.70
2023-01-09T15:13:35.288Z,10.70
2023-01-09T15:16:07.344Z,10.70
2023-01-09T15:18:43.246Z,10.70
2023-01-09T15:21:19.438Z,10.70
2023-01-09T15:23:47.895Z,10.70
2023-01-09T15:26:26.518Z,10.70
2023-01-09T15:29:01.357Z,10.70
2023-01-09T15:31:31.502Z,10.70
2023-01-09T15:34:00.013Z,10.70
2023-01-09T15:36:31.002Z,10.70
2023-01-09T15:39:00.734Z,10.70
2023-01-09T15:41:48.913Z,10.70
2023-01-09T15:44:20.892Z,10.70
2023-01-09T15:46:52.056Z,10.70
2023-01-09T15:49:21.310Z,10.70
2023-01-09T15:51:51.713Z,10.70
2023-01-09T15:54:26.788Z,10.70
2023-01-09T15:56:55.270Z,10.70
2023-01-09T15:59:27.317Z,10.70
2023-01-09T16:02:16.077Z,10.70
2023-01-09T16:04:44.843Z,10.60
2023-01-09T16:07:17.466Z,10.60
2023-01-09T16:09:47.697Z,10.60
2023-01-09T16:12:20.789Z,10.60
2023-01-09T16:14:54.028Z,10.60
2023-01-09T16:17:26.760Z,10.60
2023-01-09T16:19:58.049Z,10.60
2023-01-09T16:22:28.658Z,10.60
2023-01-09T16:24:58.801Z,10.60
2023-01-09T16:27:30.720Z,10.60
2023-01-09T16:30:00.555Z,10.70
2023-01-09T16:32:32.281Z,10.60
2023-01-09T16:35:05.472Z,10.60
2023-01-09T16:37:34.728Z,10.60
2023-01-09T16:40:30.044Z,10.50
2023-01-09T16:43:01.870Z,10.40
2023-01-09T16:45:33.809Z,10.40
2023-01-09T16:48:04.946Z,10.30
2023-01-09T16:50:33.299Z,10.20
2023-01-09T16:53:04.385Z,10.20
2023-01-09T16:55:33.076Z,10.10
2023-01-09T16:58:02.301Z,10.10
2023-01-09T17:00:30.707Z,10.10
2023-01-09T17:03:00.872Z,10.00
2023-01-09T17:05:30.727Z,10.00
2023-01-09T17:07:59.263Z,10.00
2023-01-09T17:10:27.782Z,10.10
2023-01-09T17:12:57.176Z,10.10
2023-01-09T17:15:25.538Z,10.10
2023-01-09T17:17:53.937Z,10.00
2023-01-09T17:20:22.632Z,10.00
2023-01-09T17:22:52.449Z,10.00
2023-01-09T17:25:38.226Z,9.90
2023-01-09T17:28:24.884Z,9.90
2023-01-09T17:30:53.362Z,9.90
2023-01-09T17:33:21.756Z,9.90
2023-01-09T17:35:50.159Z,10.00
2023-01-09T17:38:20.422Z,10.00
2023-01-09T17:40:50.282Z,10.10
2023-01-09T17:43:19.012Z,10.00
2023-01-09T17:45:47.570Z,10.00
2023-01-09T17:48:18.038Z,10.00
2023-01-09T17:50:46.948Z,9.90
2023-01-09T17:53:17.441Z,9.90
2023-01-09T17:55:47.320Z,9.90
2023-01-09T17:58:27.128Z,9.80
2023-01-09T18:00:55.596Z,9.90
2023-01-09T18:03:26.514Z,9.90
2023-01-09T18:05:54.968Z,9.90
2023-01-09T18:08:23.348Z,9.90
2023-01-09T18:10:53.164Z,9.90
2023-01-09T18:13:21.611Z,9.90
2023-01-09T18:15:50.229Z,9.90
2023-01-09T18:18:20.084Z,9.90
2023-01-09T18:20:48.445Z,9.90
2023-01-09T18:23:16.997Z,10.00
2023-01-09T18:25:45.736Z,10.00
2023-01-09T18:28:16.311Z,10.00
2023-01-09T18:30:45.671Z,10.00
2023-01-09T18:33:14.949Z,10.00
2023-01-09T18:35:43.416Z,10.00
2023-01-09T18:38:12.603Z,10.00
2023-01-09T18:40:41.989Z,10.00
2023-01-09T18:43:11.611Z,10.00
2023-01-09T18:45:41.712Z,9.90
2023-01-09T18:48:11.302Z,9.90
2023-01-09T18:50:39.669Z,9.90
2023-01-09T18:53:08.062Z,9.90
2023-01-09T18:55:38.739Z,9.90
2023-01-09T18:58:07.732Z,9.90
2023-01-09T19:00:36.765Z,9.90
2023-01-09T19:03:06.583Z,9.90
2023-01-09T19:05:35.143Z,9.90
2023-01-09T19:08:03.588Z,9.90
2023-01-09T19:10:31.945Z,9.90
2023-01-09T19:13:00.475Z,10.00
2023-01-09T19:15:30.102Z,10.00
2023-01-09T19:17:59.163Z,10.00
2023-01-09T19:20:29.868Z,10.00
2023-01-09T19:22:58.359Z,10.00
2023-01-09T19:25:26.808Z,10.10
2023-01-09T19:27:56.211Z,10.10
2023-01-09T19:30:24.633Z,10.10
2023-01-09T19:32:53.253Z,10.10
2023-01-09T19:35:21.748Z,10.10
2023-01-09T19:37:51.604Z,10.10
2023-01-09T19:40:20.122Z,10.10
2023-01-09T19:42:48.877Z,10.10
2023-01-09T19:45:17.399Z,10.10
2023-01-09T19:47:47.452Z,10.10
2023-01-09T19:50:17.794Z,10.10
2023-01-09T19:52:46.599Z,10.20
2023-01-09T19:55:16.544Z,10.20
2023-01-09T19:57:45.323Z,10.10
2023-01-09T20:00:14.999Z,10.10
2023-01-09T20:02:43.731Z,10.10
2023-01-09T20:05:12.192Z,10.10
2023-01-09T20:07:41.934Z,10.10
2023-01-09T20:10:11.300Z,10.10
2023-01-09T20:12:41.133Z,10.10
2023-01-09T20:15:14.893Z,10.10
2023-01-09T20:17:43.866Z,10.10
2023-01-09T20:20:13.005Z,10.10
2023-01-09T20:22:41.482Z,10.10
2023-01-09T20:25:11.333Z,10.10
2023-01-09T20:27:41.165Z,10.20
2023-01-09T20:30:10.922Z,10.20
2023-01-09T20:32:39.291Z,10.20
2023-01-09T20:35:08.611Z,10.20
2023-01-09T20:37:37.192Z,10.20
2023-01-09T20:40:06.337Z,10.10
2023-01-09T20:42:34.671Z,10.10
2023-01-09T20:45:04.586Z,10.10
2023-01-09T20:47:32.976Z,10.10
2023-01-09T20:50:01.387Z,10.10
2023-01-09T20:52:29.787Z,10.10
2023-01-09T20:54:58.212Z,10.00
2023-01-09T20:57:26.599Z,10.00
2023-01-09T20:59:54.960Z,10.00
2023-01-09T21:02:24.758Z,10.00
2023-01-09T21:04:53.289Z,10.00
2023-01-09T21:07:21.721Z,10.00
2023-01-09T21:09:50.128Z,10.10
2023-01-09T21:12:28.661Z,10.10
2023-01-09T21:14:57.285Z,10.10
2023-01-09T21:17:28.322Z,10.10
2023-01-09T21:19:56.977Z,10.10
2023-01-09T21:22:25.405Z,10.10
2023-01-09T21:24:53.788Z,10.20
2023-01-09T21:27:22.202Z,10.20
2023-01-09T21:29:50.719Z,10.20
2023-01-09T21:32:19.076Z,10.30
2023-01-09T21:34:48.853Z,10.30
2023-01-09T21:37:17.230Z,10.30
2023-01-09T21:39:45.647Z,10.30
2023-01-09T21:42:31.508Z,10.30
2023-01-09T21:45:17.380Z,10.30
2023-01-09T21:47:45.784Z,10.30
2023-01-09T21:50:17.338Z,10.30
2023-01-09T21:52:45.812Z,10.30
2023-01-09T21:55:14.195Z,10.30
2023-01-09T21:57:42.609Z,10.30
2023-01-09T22:00:12.457Z,10.30
2023-01-09T22:02:41.265Z,10.40
2023-01-09T22:05:10.155Z,10.40
2023-01-09T22:07:40.050Z,10.40
2023-01-09T22:10:09.928Z,10.40
2023-01-09T22:12:38.333Z,10.40
2023-01-09T22:15:07.878Z,10.40
2023-01-09T22:17:36.391Z,10.40
2023-01-09T22:20:04.907Z,10.40
2023-01-09T22:22:33.271Z,10.40
2023-01-09T22:25:03.743Z,10.50
2023-01-09T22:27:32.109Z,10.50
2023-01-09T22:30:00.447Z,10.50
2023-01-09T22:32:28.933Z,10.50
2023-01-09T22:34:57.278Z,10.50
2023-01-09T22:37:25.662Z,10.50
2023-01-09T22:39:54.063Z,10.40
2023-01-09T22:42:23.844Z,10.40
2023-01-09T22:44:52.185Z,10.30
2023-01-09T22:47:20.566Z,10.40
2023-01-09T22:49:53.263Z,10.40
2023-01-09T22:52:22.456Z,10.50
2023-01-09T22:54:50.827Z,10.50
2023-01-09T22:57:19.290Z,10.50
2023-01-09T22:59:49.093Z,10.50
2023-01-09T23:02:17.650Z,10.50
2023-01-09T23:04:46.143Z,10.50
2023-01-09T23:07:14.750Z,10.40
2023-01-09T23:09:43.127Z,10.50
2023-01-09T23:12:11.553Z,10.50
2023-01-09T23:14:40.589Z,10.50
2023-01-09T23:17:12.103Z,10.50
2023-01-09T23:19:40.894Z,10.50
2023-01-09T23:22:09.274Z,10.50
2023-01-09T23:24:37.665Z,10.50
2023-01-09T23:27:06.154Z,10.50
2023-01-09T23:29:39.190Z,10.50
2023-01-09T23:32:09.907Z,10.50
2023-01-09T23:34:38.448Z,10.50
2023-01-09T23:37:09.288Z,10.50
2023-01-09T23:39:37.742Z,10.50
2023-01-09T23:42:23.574Z,10.40
2023-01-09T23:44:52.235Z,10.40
2023-01-09T23:47:22.091Z,10.40
2023-01-09T23:49:50.584Z,10.40
2023-01-09T23:52:19.033Z,10.40
2023-01-09T23:54:47.423Z,10.40
2023-01-09T23:57:15.819Z,10.40
2023-01-09T23:59:44.185Z,10.50
